createdAt,value
2022-08-12T00:01:26.977Z,3.97
2022-08-12T00:04:06.630Z,3.65
2022-08-12T00:06:28.309Z,3.25
2022-08-12T00:08:51.818Z,3.63
2022-08-12T00:11:12.877Z,3.40
2022-08-12T00:13:33.280Z,4.32
2022-08-12T00:15:54.859Z,4.22
2022-08-12T00:18:15.504Z,3.08
2022-08-12T00:20:36.224Z,4.35
2022-08-12T00:22:59.717Z,4.30
2022-08-12T00:25:21.347Z,3.83
2022-08-12T00:28:02.709Z,3.53
2022-08-12T00:30:23.329Z,5.25
2022-08-12T00:32:54.370Z,3.53
2022-08-12T00:37:40.816Z,2.95
2022-08-12T00:40:01.238Z,4.32
2022-08-12T00:42:10.550Z,5.05
2022-08-12T00:44:15.134Z,3.75
2022-08-12T00:46:31.948Z,3.78
2022-08-12T00:48:34.944Z,3.50
2022-08-12T00:50:40.609Z,3.80
2022-08-12T00:52:48.125Z,3.60
2022-08-12T00:54:58.878Z,4.43
2022-08-12T00:57:31.530Z,4.30
2022-08-12T00:59:34.879Z,4.50
2022-08-12T01:02:10.254Z,4.07
2022-08-12T01:04:19.716Z,4.47
2022-08-12T01:06:42.328Z,5.63
2022-08-12T01:09:03.160Z,4.30
2022-08-12T01:11:24.330Z,4.03
2022-08-12T01:13:27.583Z,3.30
2022-08-12T01:15:29.535Z,4.25
2022-08-12T01:17:31.889Z,3.53
2022-08-12T01:19:34.125Z,4.50
2022-08-12T01:22:14.709Z,4.35
2022-08-12T01:24:41.547Z,5.28
2022-08-12T01:26:46.824Z,3.95
2022-08-12T01:28:51.066Z,4.65
2022-08-12T01:30:54.227Z,3.72
2022-08-12T01:32:59.493Z,4.60
2022-08-12T01:35:09.935Z,4.63
2022-08-12T01:37:14.337Z,3.90
2022-08-12T01:39:18.144Z,4.75
2022-08-12T01:41:23.893Z,3.58
2022-08-12T01:43:26.825Z,4.10
2022-08-12T01:45:40.674Z,6.38
2022-08-12T01:48:06.515Z,5.75
2022-08-12T01:50:18.562Z,7.32
2022-08-12T01:52:45.021Z,4.65
2022-08-12T01:54:47.544Z,4.07
2022-08-12T01:57:13.838Z,4.80
2022-08-12T01:59:47.321Z,3.55
2022-08-12T02:01:54.074Z,3.90
2022-08-12T02:04:39.732Z,4.20
2022-08-12T02:07:00.254Z,4.03
2022-08-12T02:09:23.641Z,3.70
2022-08-12T02:13:56.077Z,4.28
2022-08-12T02:16:06.653Z,4.50
2022-08-12T02:18:41.677Z,4.10
2022-08-12T02:20:52.348Z,4.32
2022-08-12T02:22:57.244Z,4.88
2022-08-12T02:25:07.383Z,4.65
2022-08-12T02:27:10.642Z,4.25
2022-08-12T02:29:13.343Z,5.07
2022-08-12T02:31:15.618Z,5.18
2022-08-12T02:33:19.853Z,4.72
2022-08-12T02:35:24.425Z,4.68
2022-08-12T02:37:30.240Z,4.85
2022-08-12T02:39:35.266Z,5.20
2022-08-12T02:41:42.405Z,4.13
2022-08-12T02:43:59.698Z,4.75
2022-08-12T02:46:14.022Z,4.57
2022-08-12T02:48:24.713Z,5.80
2022-08-12T02:50:31.590Z,4.10
2022-08-12T02:52:34.749Z,4.78
2022-08-12T02:54:38.711Z,5.35
2022-08-12T02:56:42.043Z,4.93
2022-08-12T02:58:53.059Z,4.47
2022-08-12T03:00:55.514Z,4.38
2022-08-12T03:03:00.918Z,4.10
2022-08-12T03:05:04.504Z,4.78
2022-08-12T03:07:20.238Z,4.55
2022-08-12T03:09:23.780Z,4.13
2022-08-12T03:11:42.326Z,4.15
2022-08-12T03:14:00.196Z,4.68
2022-08-12T03:16:02.311Z,4.80
2022-08-12T03:18:23.579Z,6.80
2022-08-12T03:20:29.532Z,6.07
2022-08-12T03:22:34.135Z,4.65
2022-08-12T03:24:38.519Z,4.85
2022-08-12T03:26:44.685Z,5.35
2022-08-12T03:28:51.127Z,4.50
2022-08-12T03:30:56.876Z,4.20
2022-08-12T03:33:02.464Z,4.50
2022-08-12T03:35:07.816Z,4.60
2022-08-12T03:37:11.072Z,4.63
2022-08-12T03:39:17.077Z,4.88
2022-08-12T03:41:37.252Z,5.22
2022-08-12T03:44:05.877Z,5.25
2022-08-12T03:46:31.426Z,5.50
2022-08-12T03:48:51.695Z,4.93
2022-08-12T03:51:13.952Z,6.10
2022-08-12T03:53:40.977Z,6.18
2022-08-12T03:56:01.541Z,5.53
2022-08-12T03:58:25.024Z,7.95
2022-08-12T04:00:28.472Z,7.07
2022-08-12T04:02:31.588Z,6.55
2022-08-12T04:04:35.490Z,6.72
2022-08-12T04:06:42.635Z,7.22
2022-08-12T04:08:46.519Z,5.07
2022-08-12T04:11:07.211Z,5.20
2022-08-12T04:13:16.892Z,4.68
2022-08-12T04:15:19.701Z,5.43
2022-08-12T04:19:25.104Z,4.65
2022-08-12T04:21:27.894Z,6.25
2022-08-12T04:25:35.771Z,5.72
2022-08-12T04:27:37.870Z,4.97
2022-08-12T04:30:30.289Z,4.15
2022-08-12T04:32:02.001Z,4.20
2022-08-12T04:34:04.505Z,5.30
2022-08-12T04:36:06.517Z,6.95
2022-08-12T04:38:08.899Z,4.78
2022-08-12T04:40:13.149Z,4.75
2022-08-12T04:42:15.886Z,4.00
2022-08-12T04:44:17.756Z,4.03
2022-08-12T04:46:23.943Z,4.40
2022-08-12T04:48:27.272Z,4.82
2022-08-12T04:52:38.409Z,4.82
2022-08-12T04:54:40.513Z,7.70
2022-08-12T04:56:44.562Z,5.40
2022-08-12T04:59:06.287Z,5.10
2022-08-12T05:01:09.043Z,7.95
2022-08-12T05:05:25.481Z,7.55
2022-08-12T05:07:27.711Z,9.82
2022-08-12T05:09:58.811Z,5.80
2022-08-12T05:11:54.043Z,5.70
2022-08-12T05:14:01.312Z,5.03
2022-08-12T05:16:09.182Z,5.90
2022-08-12T05:18:19.504Z,7.38
2022-08-12T05:20:22.956Z,6.28
2022-08-12T05:22:29.292Z,5.40
2022-08-12T05:24:31.035Z,8.48
2022-08-12T05:26:32.883Z,6.10
2022-08-12T05:28:35.651Z,8.55
2022-08-12T05:32:39.425Z,5.45
2022-08-12T05:34:41.287Z,8.90
2022-08-12T05:36:45.882Z,6.03
2022-08-12T05:38:56.886Z,6.47
2022-08-12T05:40:59.427Z,6.75
2022-08-12T05:43:01.149Z,6.15
2022-08-12T05:45:03.423Z,6.05
2022-08-12T05:47:05.481Z,6.25
2022-08-12T05:49:07.233Z,5.20
2022-08-12T05:51:11.289Z,5.63
2022-08-12T05:53:13.418Z,7.13
2022-08-12T05:55:15.471Z,4.93
2022-08-12T05:57:17.935Z,5.88
2022-08-12T05:59:22.214Z,4.60
2022-08-12T06:03:48.034Z,4.75
2022-08-12T06:05:54.627Z,4.30
2022-08-12T06:08:01.657Z,5.28
2022-08-12T06:10:05.140Z,5.03
2022-08-12T06:12:07.160Z,4.47
2022-08-12T06:14:12.164Z,6.65
2022-08-12T06:16:16.074Z,6.07
2022-08-12T06:18:19.114Z,3.55
2022-08-12T06:20:27.839Z,4.30
2022-08-12T06:22:32.046Z,5.03
2022-08-12T06:24:33.863Z,9.03
2022-08-12T06:26:35.693Z,4.00
2022-08-12T06:28:40.977Z,3.63
2022-08-12T06:30:53.002Z,5.10
2022-08-12T06:33:22.729Z,6.70
2022-08-12T06:35:48.506Z,4.22
2022-08-12T06:37:57.196Z,4.43
2022-08-12T06:40:03.693Z,7.03
2022-08-12T06:42:32.857Z,7.30
2022-08-12T06:44:35.258Z,6.00
2022-08-12T06:46:38.798Z,4.03
2022-08-12T06:48:43.762Z,5.78
2022-08-12T06:50:46.576Z,5.90
2022-08-12T06:54:50.715Z,5.20
2022-08-12T06:57:04.212Z,7.47
2022-08-12T06:59:06.979Z,4.97
2022-08-12T07:01:08.818Z,4.55
2022-08-12T07:03:23.124Z,5.78
2022-08-12T07:05:25.905Z,4.97
2022-08-12T07:07:27.656Z,3.53
2022-08-12T07:10:00.159Z,4.72
2022-08-12T07:11:51.178Z,2.72
2022-08-12T07:14:11.852Z,4.78
2022-08-12T07:16:19.735Z,3.65
2022-08-12T07:18:23.681Z,3.22
2022-08-12T07:20:51.173Z,5.40
2022-08-12T07:22:53.502Z,5.63
2022-08-12T07:25:18.320Z,5.38
2022-08-12T07:27:20.106Z,6.68
2022-08-12T07:29:22.963Z,7.78
2022-08-12T07:31:24.780Z,2.45
2022-08-12T07:33:29.012Z,7.53
2022-08-12T07:35:32.604Z,5.40
2022-08-12T07:37:40.586Z,5.45
2022-08-12T07:39:50.578Z,4.85
2022-08-12T07:42:01.213Z,3.08
2022-08-12T07:44:06.359Z,4.17
2022-08-12T07:46:11.855Z,3.83
2022-08-12T07:48:13.759Z,3.13
2022-08-12T07:50:23.596Z,8.17
2022-08-12T07:52:25.799Z,3.58
2022-08-12T07:54:27.625Z,3.28
2022-08-12T07:56:31.272Z,3.50
2022-08-12T07:58:33.537Z,4.15
2022-08-12T08:00:42.263Z,4.30
2022-08-12T08:02:44.027Z,6.05
2022-08-12T08:04:58.028Z,6.20
2022-08-12T08:07:00.440Z,4.60
2022-08-12T08:09:04.906Z,4.70
2022-08-12T08:11:25.337Z,4.47
2022-08-12T08:13:27.085Z,4.00
2022-08-12T08:15:58.948Z,6.30
2022-08-12T08:18:06.047Z,8.15
2022-08-12T08:20:10.480Z,4.70
2022-08-12T08:22:12.276Z,3.33
2022-08-12T08:24:17.101Z,4.90
2022-08-12T08:26:20.561Z,5.00
2022-08-12T08:28:22.317Z,2.70
2022-08-12T08:30:24.250Z,5.18
2022-08-12T08:32:26.003Z,5.00
2022-08-12T08:34:53.707Z,4.50
2022-08-12T08:36:52.132Z,3.25
2022-08-12T08:38:58.657Z,2.75
2022-08-12T08:42:14.275Z,2.47
2022-08-12T08:43:44.523Z,4.65
2022-08-12T08:45:48.336Z,3.70
2022-08-12T08:47:51.659Z,2.83
2022-08-12T08:49:54.744Z,4.72
2022-08-12T08:51:56.672Z,5.30
2022-08-12T08:53:58.504Z,5.27
2022-08-12T08:56:07.634Z,1.88
2022-08-12T08:58:10.208Z,4.97
2022-08-12T09:00:16.706Z,2.80
2022-08-12T09:02:18.873Z,6.28
2022-08-12T09:05:07.874Z,3.00
2022-08-12T09:06:53.305Z,3.08
2022-08-12T09:08:55.308Z,5.18
2022-08-12T09:16:02.466Z,2.10
2022-08-12T09:18:08.680Z,2.90
2022-08-12T09:20:16.103Z,2.05
2022-08-12T09:22:20.566Z,4.15
2022-08-12T09:24:22.795Z,2.38
2022-08-12T09:26:30.701Z,5.40
2022-08-12T09:30:52.154Z,3.15
2022-08-12T09:33:05.108Z,3.13
2022-08-12T09:35:18.433Z,3.17
2022-08-12T09:37:26.531Z,2.78
2022-08-12T09:40:03.217Z,3.72
2022-08-12T09:45:18.056Z,2.67
2022-08-12T09:47:13.862Z,3.80
2022-08-12T09:49:16.675Z,1.95
2022-08-12T09:51:22.391Z,3.28
2022-08-12T09:53:35.923Z,2.50
2022-08-12T09:56:01.231Z,2.28
2022-08-12T09:58:57.854Z,3.08
2022-08-12T10:00:52.020Z,5.25
2022-08-12T10:03:00.242Z,2.10
2022-08-12T10:05:02.691Z,3.65
2022-08-12T10:09:23.136Z,2.05
2022-08-12T10:12:11.694Z,4.47
2022-08-12T10:14:13.318Z,4.78
2022-08-12T10:16:29.183Z,2.08
2022-08-12T10:18:32.539Z,2.63
2022-08-12T10:20:34.314Z,3.17
2022-08-12T10:22:39.141Z,2.83
2022-08-12T10:24:42.718Z,4.30
2022-08-12T10:27:14.091Z,2.88
2022-08-12T10:30:37.612Z,2.40
2022-08-12T10:32:19.842Z,4.55
2022-08-12T10:34:26.270Z,6.15
2022-08-12T10:36:40.018Z,3.53
2022-08-12T10:38:45.506Z,3.75
2022-08-12T10:41:12.358Z,2.92
2022-08-12T10:43:55.867Z,2.97
2022-08-12T10:45:58.670Z,7.25
2022-08-12T10:48:20.456Z,2.10
2022-08-12T10:50:33.537Z,3.05
2022-08-12T10:52:48.344Z,4.05
2022-08-12T10:54:55.938Z,3.55
2022-08-12T10:57:00.651Z,2.95
2022-08-12T10:59:10.994Z,2.75
2022-08-12T11:01:49.599Z,3.50
2022-08-12T11:04:26.118Z,3.78
2022-08-12T11:07:05.441Z,2.00
2022-08-12T11:08:36.035Z,2.50
2022-08-12T11:10:41.682Z,7.80
2022-08-12T11:12:58.461Z,4.65
2022-08-12T11:15:14.758Z,4.22
2022-08-12T11:17:33.993Z,6.43
2022-08-12T11:19:45.426Z,2.80
2022-08-12T11:21:56.349Z,3.63
2022-08-12T11:24:01.857Z,2.10
2022-08-12T11:26:06.565Z,3.17
2022-08-12T11:28:08.806Z,3.80
2022-08-12T11:30:31.251Z,2.50
2022-08-12T11:32:39.064Z,1.67
2022-08-12T11:34:52.798Z,2.00
2022-08-12T11:37:04.974Z,2.97
2022-08-12T11:39:07.333Z,2.50
2022-08-12T11:41:09.090Z,1.90
2022-08-12T11:43:19.163Z,3.20
2022-08-12T11:45:22.233Z,4.00
2022-08-12T11:47:25.081Z,2.85
2022-08-12T11:49:31.345Z,3.55
2022-08-12T11:51:36.564Z,3.15
2022-08-12T11:53:59.536Z,1.67
2022-08-12T11:56:06.501Z,2.00
2022-08-12T11:59:02.935Z,1.67
2022-08-12T12:02:52.486Z,1.77
2022-08-12T12:04:54.336Z,2.13
2022-08-12T12:06:56.324Z,4.73
2022-08-12T12:09:09.484Z,1.45
2022-08-12T12:11:11.532Z,3.50
2022-08-12T12:13:22.911Z,2.25
2022-08-12T12:15:41.089Z,2.58
2022-08-12T12:17:43.354Z,3.53
2022-08-12T12:19:46.034Z,1.52
2022-08-12T12:21:49.511Z,1.67
2022-08-12T12:23:51.430Z,1.85
2022-08-12T12:26:07.211Z,1.95
2022-08-12T12:28:37.063Z,2.97
2022-08-12T12:30:33.580Z,2.55
2022-08-12T12:32:35.340Z,2.25
2022-08-12T12:34:37.194Z,3.70
2022-08-12T12:36:40.389Z,2.45
2022-08-12T12:40:50.375Z,3.67
2022-08-12T12:42:56.727Z,2.92
2022-08-12T12:45:19.199Z,2.15
2022-08-12T12:47:28.648Z,1.92
2022-08-12T12:49:32.056Z,1.95
2022-08-12T12:51:56.448Z,3.20
2022-08-12T12:54:06.263Z,1.95
2022-08-12T12:56:21.074Z,2.30
2022-08-12T12:58:37.135Z,3.35
2022-08-12T13:00:50.850Z,4.35
2022-08-12T13:02:56.731Z,3.53
2022-08-12T13:05:00.039Z,3.13
2022-08-12T13:07:01.792Z,1.42
2022-08-12T13:09:04.331Z,1.93
2022-08-12T13:11:07.552Z,3.42
2022-08-12T13:14:07.383Z,1.38
2022-08-12T13:15:43.502Z,1.17
2022-08-12T13:18:02.784Z,1.88
2022-08-12T13:20:06.959Z,2.70
2022-08-12T13:22:19.259Z,1.00
2022-08-12T13:24:21.289Z,3.53
2022-08-12T13:26:23.133Z,1.67
2022-08-12T13:28:30.198Z,1.33
2022-08-12T13:30:31.978Z,2.22
2022-08-12T13:32:33.862Z,3.93
2022-08-12T13:34:37.226Z,1.00
2022-08-12T13:36:40.965Z,2.90
2022-08-12T13:38:52.109Z,1.67
2022-08-12T13:40:58.382Z,1.48
2022-08-12T13:43:01.819Z,3.03
2022-08-12T13:45:03.948Z,0.93
2022-08-12T13:47:10.256Z,1.42
2022-08-12T13:49:54.147Z,1.65
2022-08-12T13:51:42.808Z,1.35
2022-08-12T13:53:58.864Z,1.35
2022-08-12T13:56:05.986Z,1.67
2022-08-12T13:58:18.297Z,2.63
2022-08-12T14:00:21.461Z,1.23
2022-08-12T14:02:38.496Z,2.33
2022-08-12T14:04:42.425Z,0.98
2022-08-12T14:06:44.988Z,0.90
2022-08-12T14:08:50.590Z,1.05
2022-08-12T14:10:55.793Z,0.95
2022-08-12T14:12:57.543Z,0.98
2022-08-12T14:17:09.890Z,1.13
2022-08-12T14:19:22.646Z,3.15
2022-08-12T14:21:28.805Z,2.15
2022-08-12T14:24:04.186Z,0.95
2022-08-12T14:26:00.529Z,0.80
2022-08-12T14:28:11.551Z,2.22
2022-08-12T14:30:17.123Z,1.42
2022-08-12T14:32:34.885Z,1.63
2022-08-12T14:34:37.411Z,4.35
2022-08-12T14:36:39.364Z,1.10
2022-08-12T14:38:46.161Z,1.75
2022-08-12T14:40:50.395Z,0.90
2022-08-12T14:42:52.274Z,1.13
2022-08-12T14:45:01.218Z,3.90
2022-08-12T14:47:08.074Z,1.33
2022-08-12T14:50:01.413Z,4.65
2022-08-12T14:52:43.303Z,1.33
2022-08-12T14:55:50.764Z,1.50
2022-08-12T14:59:20.649Z,0.73
2022-08-12T15:01:41.718Z,1.17
2022-08-12T15:03:57.054Z,0.75
2022-08-12T15:06:43.940Z,1.30
2022-08-12T15:08:42.767Z,0.75
2022-08-12T15:10:54.006Z,1.13
2022-08-12T15:12:58.245Z,0.80
2022-08-12T15:15:00.038Z,0.70
2022-08-12T15:17:02.671Z,0.60
2022-08-12T15:21:26.219Z,1.52
2022-08-12T15:23:55.544Z,2.15
2022-08-12T15:26:03.222Z,2.63
2022-08-12T15:28:20.439Z,0.63
2022-08-12T15:30:24.792Z,0.60
2022-08-12T15:32:32.302Z,1.85
2022-08-12T15:34:38.776Z,2.15
2022-08-12T15:36:55.309Z,0.80
2022-08-12T15:38:57.638Z,2.30
2022-08-12T15:41:00.110Z,0.95
2022-08-12T15:45:10.212Z,1.60
2022-08-12T15:47:26.741Z,0.75
2022-08-12T15:49:54.579Z,0.80
2022-08-12T15:52:04.996Z,0.88
2022-08-12T15:54:34.399Z,2.05
2022-08-12T15:56:30.819Z,1.90
2022-08-12T15:58:33.759Z,1.00
2022-08-12T16:00:38.321Z,0.98
2022-08-12T16:02:50.130Z,0.95
2022-08-12T16:07:11.581Z,1.88
2022-08-12T16:09:21.654Z,0.88
2022-08-12T16:11:23.632Z,2.65
2022-08-12T16:13:34.511Z,1.17
2022-08-12T16:15:42.321Z,1.48
2022-08-12T16:18:18.093Z,2.78
2022-08-12T16:20:21.604Z,2.03
2022-08-12T16:22:24.448Z,0.75
2022-08-12T16:24:28.747Z,1.30
2022-08-12T16:26:34.989Z,1.10
2022-08-12T16:28:37.896Z,3.00
2022-08-12T16:32:53.780Z,1.35
2022-08-12T16:34:56.534Z,1.08
2022-08-12T16:37:03.121Z,1.45
2022-08-12T16:39:05.222Z,0.80
2022-08-12T16:41:07.261Z,2.65
2022-08-12T16:43:27.530Z,1.75
2022-08-12T16:46:23.370Z,1.50
2022-08-12T16:48:01.476Z,1.92
2022-08-12T16:50:07.831Z,2.13
2022-08-12T16:52:12.502Z,1.63
2022-08-12T16:54:21.859Z,0.90
2022-08-12T16:56:28.944Z,2.03
2022-08-12T16:58:31.001Z,1.02
2022-08-12T17:00:32.768Z,1.17
2022-08-12T17:02:40.572Z,1.17
2022-08-12T17:04:52.792Z,1.27
2022-08-12T17:06:55.013Z,0.90
2022-08-12T17:09:03.036Z,2.63
2022-08-12T17:11:08.380Z,2.58
2022-08-12T17:13:10.773Z,2.13
2022-08-12T17:15:21.419Z,0.77
2022-08-12T17:17:40.925Z,2.03
2022-08-12T17:20:30.317Z,0.75
2022-08-12T17:22:07.904Z,1.08
2022-08-12T17:24:10.562Z,1.15
2022-08-12T17:26:22.242Z,1.95
2022-08-12T17:28:24.965Z,1.23
2022-08-12T17:32:32.816Z,2.15
2022-08-12T17:34:53.406Z,0.90
2022-08-12T17:36:58.740Z,1.00
2022-08-12T17:39:09.330Z,1.73
2022-08-12T17:41:23.209Z,1.02
2022-08-12T17:43:57.663Z,2.53
2022-08-12T17:45:56.148Z,2.25
2022-08-12T17:48:05.699Z,0.88
2022-08-12T17:50:08.511Z,2.20
2022-08-12T17:52:20.856Z,2.00
2022-08-12T17:54:23.680Z,2.38
2022-08-12T17:56:27.781Z,1.00
2022-08-12T17:58:37.895Z,1.67
2022-08-12T18:00:43.657Z,2.50
2022-08-12T18:02:47.900Z,1.08
2022-08-12T18:05:04.734Z,0.90
2022-08-12T18:07:08.610Z,1.17
2022-08-12T18:09:13.761Z,4.32
2022-08-12T18:12:03.943Z,1.20
2022-08-12T18:13:56.519Z,1.15
2022-08-12T18:16:06.758Z,1.52
2022-08-12T18:18:15.767Z,2.50
2022-08-12T18:20:19.343Z,1.13
2022-08-12T18:22:30.806Z,1.45
2022-08-12T18:24:33.910Z,2.70
2022-08-12T18:26:36.168Z,1.30
2022-08-12T18:28:43.080Z,2.60
2022-08-12T18:30:52.964Z,1.40
2022-08-12T18:33:04.497Z,3.00
2022-08-12T18:35:10.748Z,2.88
2022-08-12T18:37:41.157Z,1.23
2022-08-12T18:39:56.581Z,1.15
2022-08-12T18:41:59.333Z,1.33
2022-08-12T18:46:14.527Z,1.75
2022-08-12T18:48:18.744Z,1.83
2022-08-12T18:50:24.324Z,1.25
2022-08-12T18:52:30.956Z,2.67
2022-08-12T18:54:53.313Z,1.13
2022-08-12T18:57:03.828Z,1.35
2022-08-12T18:59:06.720Z,2.83
2022-08-12T19:02:19.862Z,2.22
2022-08-12T19:03:39.704Z,1.65
2022-08-12T19:05:53.143Z,1.20
2022-08-12T19:08:01.643Z,2.88
2022-08-12T19:10:04.778Z,1.52
2022-08-12T19:12:30.449Z,7.88
2022-08-12T19:14:35.273Z,3.60
2022-08-12T19:16:38.813Z,5.18
2022-08-12T19:18:44.953Z,2.28
2022-08-12T19:20:48.121Z,3.08
2022-08-12T19:22:58.064Z,1.50
2022-08-12T19:25:23.585Z,2.20
2022-08-12T19:27:50.661Z,1.67
2022-08-12T19:30:06.469Z,1.48
2022-08-12T19:32:13.755Z,1.40
2022-08-12T19:36:40.435Z,1.50
2022-08-12T19:38:46.914Z,1.50
2022-08-12T19:41:03.131Z,2.42
2022-08-12T19:43:17.856Z,1.67
2022-08-12T19:45:22.780Z,1.67
2022-08-12T19:47:24.643Z,2.70
2022-08-12T19:49:27.249Z,1.73
2022-08-12T19:51:35.871Z,1.70
2022-08-12T19:53:56.857Z,2.03
2022-08-12T19:55:59.737Z,1.50
2022-08-12T19:58:03.237Z,2.23
2022-08-12T20:00:08.482Z,2.33
2022-08-12T20:02:13.889Z,1.40
2022-08-12T20:04:18.637Z,1.80
2022-08-12T20:06:27.605Z,1.40
2022-08-12T20:08:34.404Z,2.38
2022-08-12T20:10:46.762Z,1.55
2022-08-12T20:13:17.492Z,2.88
2022-08-12T20:15:15.252Z,2.70
2022-08-12T20:17:17.088Z,1.90
2022-08-12T20:19:52.127Z,1.65
2022-08-12T20:21:49.540Z,2.35
2022-08-12T20:24:01.069Z,1.70
2022-08-12T20:26:07.312Z,3.42
2022-08-12T20:28:12.062Z,2.53
2022-08-12T20:30:14.775Z,1.63
2022-08-12T20:32:16.563Z,1.95
2022-08-12T20:34:26.262Z,3.20
2022-08-12T20:38:45.944Z,3.97
2022-08-12T20:40:48.577Z,2.03
2022-08-12T20:42:53.541Z,1.70
2022-08-12T20:44:57.153Z,2.22
2022-08-12T20:47:18.733Z,2.65
2022-08-12T20:49:23.691Z,1.48
2022-08-12T20:51:28.039Z,4.32
2022-08-12T20:53:57.807Z,2.05
2022-08-12T20:56:19.501Z,3.75
2022-08-12T20:58:21.806Z,3.35
2022-08-12T21:00:28.275Z,1.85
2022-08-12T21:02:30.896Z,4.32
2022-08-12T21:06:57.296Z,2.15
2022-08-12T21:09:00.253Z,2.45
2022-08-12T21:11:02.729Z,2.90
2022-08-12T21:13:04.525Z,1.85
2022-08-12T21:15:30.342Z,2.88
2022-08-12T21:18:01.067Z,3.72
2022-08-12T21:20:06.004Z,2.63
2022-08-12T21:22:24.826Z,4.30
2022-08-12T21:24:31.794Z,4.82
2022-08-12T21:26:35.903Z,2.53
2022-08-12T21:28:42.619Z,2.30
2022-08-12T21:32:34.303Z,2.17
2022-08-12T21:33:23.479Z,3.17
2022-08-12T21:35:35.813Z,2.47
2022-08-12T21:37:42.484Z,2.38
2022-08-12T21:39:56.519Z,3.13
2022-08-12T21:42:06.594Z,5.78
2022-08-12T21:44:24.117Z,3.67
2022-08-12T21:46:35.685Z,3.72
2022-08-12T21:48:37.437Z,4.85
2022-08-12T21:50:40.022Z,3.42
2022-08-12T21:52:49.167Z,2.47
2022-08-12T21:54:56.460Z,3.05
2022-08-12T21:56:59.167Z,2.80
2022-08-12T21:59:00.978Z,3.78
2022-08-12T22:01:03.762Z,4.43
2022-08-12T22:04:03.666Z,2.75
2022-08-12T22:06:13.665Z,3.80
2022-08-12T22:08:22.189Z,2.92
2022-08-12T22:10:28.342Z,2.67
2022-08-12T22:12:34.738Z,4.13
2022-08-12T22:14:39.516Z,2.55
2022-08-12T22:16:46.859Z,2.22
2022-08-12T22:18:50.750Z,2.47
2022-08-12T22:20:55.832Z,3.05
2022-08-12T22:23:00.286Z,3.83
2022-08-12T22:25:04.917Z,2.88
2022-08-12T22:27:31.736Z,2.50
2022-08-12T22:29:49.670Z,4.82
2022-08-12T22:31:54.526Z,3.03
2022-08-12T22:33:59.978Z,2.15
2022-08-12T22:36:03.774Z,3.38
2022-08-12T22:38:10.847Z,2.65
2022-08-12T22:40:12.934Z,2.60
2022-08-12T22:42:33.374Z,3.15
2022-08-12T22:44:55.364Z,4.20
2022-08-12T22:47:03.273Z,2.75
2022-08-12T22:49:06.747Z,3.13
2022-08-12T22:51:11.144Z,2.92
2022-08-12T22:53:16.431Z,2.42
2022-08-12T22:55:59.048Z,3.55
2022-08-12T22:57:49.071Z,4.88
2022-08-12T23:02:01.916Z,2.40
2022-08-12T23:04:07.818Z,3.95
2022-08-12T23:06:12.193Z,2.95
2022-08-12T23:08:17.891Z,2.90
2022-08-12T23:10:21.293Z,2.85
2022-08-12T23:12:46.705Z,2.65
2022-08-12T23:14:49.094Z,2.65
2022-08-12T23:16:52.392Z,2.60
2022-08-12T23:18:54.275Z,3.10
2022-08-12T23:20:58.974Z,3.08
2022-08-12T23:23:05.870Z,2.53
2022-08-12T23:25:21.024Z,3.80
2022-08-12T23:27:50.389Z,3.13
2022-08-12T23:30:17.475Z,3.20
2022-08-12T23:32:34.997Z,2.97
2022-08-12T23:34:38.619Z,2.93
2022-08-12T23:36:51.435Z,3.53
2022-08-12T23:38:58.703Z,3.13
2022-08-12T23:41:05.973Z,3.75
2022-08-12T23:43:08.023Z,3.25
2022-08-12T23:45:20.492Z,3.42
2022-08-12T23:47:32.753Z,6.20
2022-08-12T23:49:57.860Z,3.30
2022-08-12T23:52:07.145Z,3.58
2022-08-12T23:54:10.786Z,3.22
2022-08-12T23:56:36.277Z,2.90
2022-08-12T23:58:49.517Z,2.88
